createdAt,value
2023-02-22T00:01:38.171Z,101505.25
2023-02-22T00:04:06.544Z,101504.50
2023-02-22T00:06:33.646Z,101497.81
2023-02-22T00:09:02.470Z,101515.84
2023-02-22T00:11:31.739Z,101493.09
2023-02-22T00:13:58.650Z,101514.19
2023-02-22T00:16:26.161Z,101514.19
2023-02-22T00:18:53.454Z,101502.59
2023-02-22T00:21:20.577Z,101501.94
2023-02-22T00:23:47.840Z,101508.03
2023-02-22T00:26:18.573Z,101513.06
2023-02-22T00:28:49.840Z,101515.50
2023-02-22T00:31:17.299Z,101506.53
2023-02-22T00:33:44.596Z,101519.91
2023-02-22T00:36:12.185Z,101517.31
2023-02-22T00:38:39.553Z,101514.97
2023-02-22T00:41:07.281Z,101522.75
2023-02-22T00:43:34.459Z,101509.47
2023-02-22T00:46:01.426Z,101530.66
2023-02-22T00:48:28.604Z,101517.56
2023-02-22T00:50:55.529Z,101533.25
2023-02-22T00:53:23.674Z,101505.00
2023-02-22T00:55:50.662Z,101527.38
2023-02-22T00:58:18.722Z,101532.38
2023-02-22T01:00:45.792Z,101537.22
2023-02-22T01:03:15.597Z,101537.69
2023-02-22T01:05:42.759Z,101543.75
2023-02-22T01:08:10.783Z,101545.28
2023-02-22T01:10:38.111Z,101548.09
2023-02-22T01:13:09.254Z,101551.22
2023-02-22T01:15:37.559Z,101549.56
2023-02-22T01:18:05.313Z,101547.66
2023-02-22T01:20:32.407Z,101532.16
2023-02-22T01:23:00.209Z,101558.16
2023-02-22T01:25:29.497Z,101553.31
2023-02-22T01:27:56.597Z,101557.44
2023-02-22T01:30:25.867Z,101572.09
2023-02-22T01:32:53.079Z,101570.94
2023-02-22T01:35:23.460Z,101551.94
2023-02-22T01:37:50.355Z,101571.03
2023-02-22T01:40:39.665Z,101582.38
2023-02-22T01:43:29.819Z,101580.13
2023-02-22T01:46:06.490Z,101588.44
2023-02-22T01:48:44.644Z,101585.72
2023-02-22T01:51:19.893Z,101590.69
2023-02-22T01:53:54.473Z,101591.44
2023-02-22T01:56:21.928Z,101579.44
2023-02-22T01:58:51.062Z,101585.53
2023-02-22T02:01:18.702Z,101586.47
2023-02-22T02:03:45.852Z,101573.91
2023-02-22T02:06:13.866Z,101586.59
2023-02-22T02:09:18.135Z,101584.16
2023-02-22T02:11:44.934Z,101569.78
2023-02-22T02:14:12.225Z,101570.53
2023-02-22T02:16:42.845Z,101577.41
2023-02-22T02:19:26.846Z,101570.88
2023-02-22T02:22:18.176Z,101582.50
2023-02-22T02:24:50.423Z,101590.19
2023-02-22T02:27:20.568Z,101585.84
2023-02-22T02:30:13.467Z,101582.44
2023-02-22T02:33:22.212Z,101572.16
2023-02-22T02:36:00.553Z,101580.34
2023-02-22T02:38:54.705Z,101586.13
2023-02-22T02:41:55.738Z,101569.19
2023-02-22T02:44:28.355Z,101581.63
2023-02-22T02:47:12.374Z,101574.75
2023-02-22T02:50:00.474Z,101578.06
2023-02-22T02:52:28.002Z,101553.13
2023-02-22T02:54:54.850Z,101574.31
2023-02-22T02:57:22.095Z,101581.97
2023-02-22T02:59:48.934Z,101565.69
2023-02-22T03:02:57.376Z,101580.88
2023-02-22T03:06:02.008Z,101590.09
2023-02-22T03:09:02.770Z,101593.50
2023-02-22T03:11:31.856Z,101591.75
2023-02-22T03:14:13.753Z,101594.28
2023-02-22T03:16:46.806Z,101590.78
2023-02-22T03:19:35.121Z,101595.91
2023-02-22T03:22:01.891Z,101598.41
2023-02-22T03:24:42.555Z,101590.78
2023-02-22T03:27:11.659Z,101598.50
2023-02-22T03:29:40.996Z,101598.63
2023-02-22T03:32:09.872Z,101608.59
2023-02-22T03:35:01.774Z,101607.78
2023-02-22T03:37:34.204Z,101602.09
2023-02-22T03:40:01.417Z,101604.53
2023-02-22T03:42:33.758Z,101599.66
2023-02-22T03:45:01.301Z,101614.75
2023-02-22T03:47:35.918Z,101613.09
2023-02-22T03:50:18.963Z,101624.13
2023-02-22T03:52:47.602Z,101617.28
2023-02-22T03:55:17.744Z,101623.41
2023-02-22T03:57:52.535Z,101627.53
2023-02-22T04:00:22.997Z,101611.72
2023-02-22T04:02:49.918Z,101624.25
2023-02-22T04:08:57.217Z,101625.31
2023-02-22T04:11:24.142Z,101630.41
2023-02-22T04:13:51.133Z,101631.31
2023-02-22T04:16:18.103Z,101643.19
2023-02-22T04:18:45.046Z,101652.78
2023-02-22T04:21:11.838Z,101641.72
2023-02-22T04:23:38.701Z,101641.72
2023-02-22T04:26:05.679Z,101640.03
2023-02-22T04:28:32.518Z,101650.25
2023-02-22T04:30:59.374Z,101654.44
2023-02-22T04:33:26.296Z,101631.53
2023-02-22T04:35:53.101Z,101650.25
2023-02-22T04:38:20.117Z,101646.81
2023-02-22T04:40:46.995Z,101659.41
2023-02-22T04:43:13.815Z,101669.69
2023-02-22T04:45:40.630Z,101652.78
2023-02-22T04:48:07.474Z,101658.66
2023-02-22T04:50:34.355Z,101656.94
2023-02-22T04:53:01.159Z,101663.03
2023-02-22T04:55:28.302Z,101662.97
2023-02-22T04:57:56.073Z,101649.41
2023-02-22T05:00:23.154Z,101653.78
2023-02-22T05:02:50.432Z,101662.31
2023-02-22T05:05:18.681Z,101662.41
2023-02-22T05:07:45.571Z,101661.53
2023-02-22T05:10:12.481Z,101649.03
2023-02-22T05:12:39.355Z,101660.00
2023-02-22T05:15:07.190Z,101651.69
2023-02-22T05:17:34.533Z,101645.03
2023-02-22T05:20:01.527Z,101671.97
2023-02-22T05:22:28.436Z,101667.75
2023-02-22T05:24:56.920Z,101660.13
2023-02-22T05:27:23.852Z,101658.59
2023-02-22T05:29:50.737Z,101672.16
2023-02-22T05:32:17.573Z,101666.44
2023-02-22T05:34:44.421Z,101653.56
2023-02-22T05:37:11.235Z,101664.53
2023-02-22T05:39:38.034Z,101665.47
2023-02-22T05:42:04.836Z,101680.69
2023-02-22T05:44:31.637Z,101679.72
2023-02-22T05:46:58.458Z,101666.09
2023-02-22T05:49:25.286Z,101682.78
2023-02-22T05:51:52.198Z,101669.38
2023-02-22T05:54:19.021Z,101680.41
2023-02-22T05:56:45.802Z,101675.16
2023-02-22T05:59:12.694Z,101687.91
2023-02-22T06:01:39.489Z,101689.72
2023-02-22T06:04:06.410Z,101689.59
2023-02-22T06:06:33.317Z,101695.25
2023-02-22T06:09:00.513Z,101704.50
2023-02-22T06:11:27.380Z,101703.00
2023-02-22T06:13:54.362Z,101712.03
2023-02-22T06:16:21.632Z,101707.78
2023-02-22T06:18:48.767Z,101716.09
2023-02-22T06:21:15.897Z,101726.09
2023-02-22T06:23:42.967Z,101729.41
2023-02-22T06:26:09.741Z,101713.31
2023-02-22T06:28:36.876Z,101733.38
2023-02-22T06:31:03.668Z,101741.03
2023-02-22T06:33:30.518Z,101747.03
2023-02-22T06:35:57.316Z,101743.69
2023-02-22T06:38:24.858Z,101745.97
2023-02-22T06:40:51.758Z,101743.53
2023-02-22T06:43:18.713Z,101740.66
2023-02-22T06:45:45.530Z,101738.06
2023-02-22T06:48:12.628Z,101733.59
2023-02-22T06:50:39.418Z,101744.25
2023-02-22T06:53:06.238Z,101760.25
2023-02-22T06:55:33.888Z,101760.38
2023-02-22T06:58:00.954Z,101754.94
2023-02-22T07:00:28.401Z,101772.50
2023-02-22T07:02:55.368Z,101761.47
2023-02-22T07:05:22.838Z,101754.44
2023-02-22T07:07:50.543Z,101766.97
2023-02-22T07:10:25.245Z,101781.09
2023-02-22T07:12:55.057Z,101781.91
2023-02-22T07:15:23.698Z,101770.13
2023-02-22T07:17:51.725Z,101779.97
2023-02-22T07:20:20.839Z,101790.00
2023-02-22T07:22:48.477Z,101787.28
2023-02-22T07:25:15.348Z,101776.88
2023-02-22T07:27:42.462Z,101784.03
2023-02-22T07:30:20.265Z,101781.94
2023-02-22T07:32:47.280Z,101775.06
2023-02-22T07:35:37.827Z,101788.03
2023-02-22T07:38:10.904Z,101777.28
2023-02-22T07:40:38.298Z,101786.91
2023-02-22T07:43:26.562Z,101787.03
2023-02-22T07:45:54.724Z,101787.19
2023-02-22T07:48:22.876Z,101786.31
2023-02-22T07:50:49.901Z,101793.03
2023-02-22T07:53:18.668Z,101783.09
2023-02-22T07:55:45.527Z,101798.63
2023-02-22T07:58:15.021Z,101797.22
2023-02-22T08:00:44.062Z,101796.28
2023-02-22T08:03:13.120Z,101795.22
2023-02-22T08:05:41.425Z,101809.94
2023-02-22T08:08:08.307Z,101806.91
2023-02-22T08:10:35.403Z,101802.09
2023-02-22T08:13:02.594Z,101791.88
2023-02-22T08:15:34.791Z,101797.69
2023-02-22T08:18:02.249Z,101798.75
2023-02-22T08:20:29.305Z,101782.63
2023-02-22T08:22:56.442Z,101800.84
2023-02-22T08:25:25.542Z,101803.72
2023-02-22T08:27:52.540Z,101795.47
2023-02-22T08:30:23.544Z,101799.09
2023-02-22T08:32:50.726Z,101801.72
2023-02-22T08:35:19.289Z,101805.31
2023-02-22T08:37:53.104Z,101808.97
2023-02-22T08:40:22.006Z,101803.38
2023-02-22T08:42:48.893Z,101793.53
2023-02-22T08:45:15.866Z,101804.75
2023-02-22T08:47:42.862Z,101788.94
2023-02-22T08:50:10.070Z,101789.91
2023-02-22T08:52:36.888Z,101792.97
2023-02-22T08:55:03.801Z,101794.25
2023-02-22T08:57:31.917Z,101802.31
2023-02-22T08:59:58.776Z,101803.16
2023-02-22T09:02:25.676Z,101797.41
2023-02-22T09:04:52.460Z,101802.31
2023-02-22T09:07:19.277Z,101795.63
2023-02-22T09:09:46.140Z,101808.38
2023-02-22T09:12:12.987Z,101796.75
2023-02-22T09:14:39.792Z,101810.34
2023-02-22T09:17:06.647Z,101805.13
2023-02-22T09:19:33.449Z,101799.50
2023-02-22T09:22:00.224Z,101800.03
2023-02-22T09:24:27.179Z,101803.63
2023-02-22T09:26:54.289Z,101799.78
2023-02-22T09:29:25.110Z,101812.75
2023-02-22T09:31:52.985Z,101797.00
2023-02-22T09:34:20.628Z,101806.97
2023-02-22T09:36:47.981Z,101808.00
2023-02-22T09:39:16.121Z,101810.84
2023-02-22T09:42:15.266Z,101807.75
2023-02-22T09:44:48.630Z,101812.75
2023-02-22T09:47:32.572Z,101802.25
2023-02-22T09:50:02.493Z,101806.34
2023-02-22T09:52:32.486Z,101810.78
2023-02-22T09:55:29.016Z,101814.25
2023-02-22T09:57:56.567Z,101806.50
2023-02-22T10:00:29.404Z,101802.81
2023-02-22T10:03:14.737Z,101818.78
2023-02-22T10:05:43.010Z,101809.13
2023-02-22T10:08:14.544Z,101814.69
2023-02-22T10:10:52.667Z,101817.41
2023-02-22T10:13:27.502Z,101824.97
2023-02-22T10:16:00.025Z,101822.75
2023-02-22T10:18:39.402Z,101825.97
2023-02-22T10:21:21.864Z,101831.91
2023-02-22T10:24:07.531Z,101826.94
2023-02-22T10:26:40.947Z,101823.09
2023-02-22T10:29:29.719Z,101824.91
2023-02-22T10:32:01.301Z,101832.03
2023-02-22T10:34:33.410Z,101822.31
2023-02-22T10:37:23.421Z,101832.84
2023-02-22T10:39:50.562Z,101840.97
2023-02-22T10:42:17.371Z,101832.72
2023-02-22T10:44:44.146Z,101836.59
2023-02-22T10:47:12.603Z,101833.88
2023-02-22T10:49:44.181Z,101837.34
2023-02-22T10:52:29.503Z,101832.75
2023-02-22T10:55:13.673Z,101847.09
2023-02-22T10:57:42.396Z,101840.25
2023-02-22T11:00:29.455Z,101836.53
2023-02-22T11:02:57.003Z,101835.38
2023-02-22T11:05:42.102Z,101842.25
2023-02-22T11:08:21.164Z,101838.72
2023-02-22T11:10:48.908Z,101836.28
2023-02-22T11:13:37.096Z,101843.88
2023-02-22T11:16:31.919Z,101850.81
2023-02-22T11:19:03.390Z,101843.91
2023-02-22T11:21:30.484Z,101851.13
2023-02-22T11:24:08.782Z,101855.59
2023-02-22T11:26:44.022Z,101843.66
2023-02-22T11:29:36.846Z,101856.75
2023-02-22T11:32:21.158Z,101849.88
2023-02-22T11:34:52.807Z,101853.94
2023-02-22T11:37:22.427Z,101847.94
2023-02-22T11:39:51.469Z,101854.63
2023-02-22T11:42:23.299Z,101851.50
2023-02-22T11:45:09.449Z,101844.66
2023-02-22T11:47:45.687Z,101852.31
2023-02-22T11:50:19.903Z,101849.91
2023-02-22T11:52:46.669Z,101834.63
2023-02-22T11:55:42.736Z,101846.53
2023-02-22T11:58:50.619Z,101858.16
2023-02-22T12:01:41.038Z,101856.91
2023-02-22T12:04:25.955Z,101852.50
2023-02-22T12:07:10.460Z,101850.91
2023-02-22T12:09:55.206Z,101846.72
2023-02-22T12:12:44.099Z,101843.75
2023-02-22T12:15:18.775Z,101849.00
2023-02-22T12:18:14.418Z,101849.72
2023-02-22T12:20:45.925Z,101843.56
2023-02-22T12:23:15.775Z,101841.69
2023-02-22T12:25:58.559Z,101845.81
2023-02-22T12:28:53.323Z,101845.06
2023-02-22T12:31:23.408Z,101824.19
2023-02-22T12:34:01.242Z,101828.50
2023-02-22T12:36:40.280Z,101826.53
2023-02-22T12:39:23.576Z,101826.44
2023-02-22T12:41:50.391Z,101812.94
2023-02-22T12:44:20.341Z,101812.97
2023-02-22T12:46:49.408Z,101819.22
2023-02-22T12:49:38.011Z,101818.66
2023-02-22T12:52:22.248Z,101813.50
2023-02-22T12:55:11.247Z,101818.88
2023-02-22T12:57:46.887Z,101821.09
2023-02-22T13:00:23.218Z,101819.69
2023-02-22T13:03:00.747Z,101820.91
2023-02-22T13:05:28.918Z,101805.00
2023-02-22T13:08:14.561Z,101827.34
2023-02-22T13:10:52.832Z,101825.84
2023-02-22T13:13:31.575Z,101829.81
2023-02-22T13:16:16.163Z,101836.03
2023-02-22T13:18:54.902Z,101827.28
2023-02-22T13:21:29.694Z,101824.78
2023-02-22T13:24:15.390Z,101836.91
2023-02-22T13:26:46.833Z,101844.94
2023-02-22T13:29:21.779Z,101830.06
2023-02-22T13:32:26.061Z,101848.88
2023-02-22T13:35:17.440Z,101852.00
2023-02-22T13:38:22.762Z,101849.59
2023-02-22T13:41:15.766Z,101860.75
2023-02-22T13:44:13.672Z,101860.50
2023-02-22T13:47:09.569Z,101863.53
2023-02-22T13:49:39.041Z,101863.94
2023-02-22T13:52:13.510Z,101840.91
2023-02-22T13:54:41.572Z,101865.50
2023-02-22T13:57:18.922Z,101855.81
2023-02-22T13:59:47.282Z,101859.00
2023-02-22T14:02:51.526Z,101859.84
2023-02-22T14:05:39.708Z,101867.97
2023-02-22T14:08:07.095Z,101859.16
2023-02-22T14:11:05.933Z,101866.50
2023-02-22T14:14:00.991Z,101864.06
2023-02-22T14:16:31.642Z,101869.44
2023-02-22T14:19:20.491Z,101865.63
2023-02-22T14:22:06.913Z,101871.25
2023-02-22T14:24:47.100Z,101858.09
2023-02-22T14:27:14.081Z,101860.09
2023-02-22T14:29:55.215Z,101870.19
2023-02-22T14:32:22.489Z,101867.38
2023-02-22T14:34:58.251Z,101860.84
2023-02-22T14:37:27.279Z,101866.97
2023-02-22T14:40:19.292Z,101856.97
2023-02-22T14:42:48.510Z,101850.16
2023-02-22T14:45:28.551Z,101865.63
2023-02-22T14:48:11.728Z,101866.31
2023-02-22T14:50:44.949Z,101863.47
2023-02-22T14:53:11.683Z,101866.84
2023-02-22T14:55:51.104Z,101871.13
2023-02-22T14:58:26.348Z,101869.72
2023-02-22T15:00:53.942Z,101862.84
2023-02-22T15:03:40.349Z,101873.13
2023-02-22T15:06:16.838Z,101880.84
2023-02-22T15:08:48.990Z,101869.97
2023-02-22T15:11:31.186Z,101866.47
2023-02-22T15:13:58.381Z,101863.72
2023-02-22T15:16:26.871Z,101871.84
2023-02-22T15:18:55.006Z,101873.47
2023-02-22T15:21:24.531Z,101877.41
2023-02-22T15:24:01.045Z,101870.34
2023-02-22T15:26:52.029Z,101878.72
2023-02-22T15:29:41.172Z,101870.75
2023-02-22T15:32:29.715Z,101870.03
2023-02-22T15:35:14.750Z,101883.06
2023-02-22T15:37:41.639Z,101870.06
2023-02-22T15:40:14.741Z,101880.59
2023-02-22T15:42:48.433Z,101876.88
2023-02-22T15:45:17.085Z,101877.69
2023-02-22T15:47:43.883Z,101883.19
2023-02-22T15:50:27.466Z,101890.75
2023-02-22T15:52:59.943Z,101880.75
2023-02-22T15:55:33.797Z,101896.81
2023-02-22T15:58:02.375Z,101898.16
2023-02-22T16:00:36.466Z,101907.19
2023-02-22T16:03:10.217Z,101897.63
2023-02-22T16:05:57.231Z,101914.09
2023-02-22T16:08:31.319Z,101905.94
2023-02-22T16:11:39.876Z,101910.38
2023-02-22T16:14:24.073Z,101912.63
2023-02-22T16:16:51.431Z,101903.03
2023-02-22T16:19:28.813Z,101914.31
2023-02-22T16:22:03.337Z,101909.53
2023-02-22T16:24:34.580Z,101905.84
2023-02-22T16:27:22.684Z,101926.28
2023-02-22T16:30:27.090Z,101927.47
2023-02-22T16:32:57.402Z,101930.47
2023-02-22T16:35:29.159Z,101934.22
2023-02-22T16:38:04.087Z,101937.91
2023-02-22T16:40:34.637Z,101932.19
2023-02-22T16:43:02.995Z,101930.72
2023-02-22T16:45:29.886Z,101935.25
2023-02-22T16:47:56.695Z,101946.25
2023-02-22T16:50:23.918Z,101904.97
2023-02-22T16:52:53.814Z,101937.84
2023-02-22T16:55:20.838Z,101934.75
2023-02-22T16:57:48.274Z,101928.09
2023-02-22T17:00:17.787Z,101951.63
2023-02-22T17:02:45.483Z,101944.13
2023-02-22T17:05:16.034Z,101944.13
2023-02-22T17:07:42.905Z,101953.44
2023-02-22T17:10:16.466Z,101945.06
2023-02-22T17:12:50.525Z,101946.03
2023-02-22T17:15:39.752Z,101948.78
2023-02-22T17:18:14.514Z,101950.66
2023-02-22T17:20:41.339Z,101951.72
2023-02-22T17:23:09.236Z,101936.59
2023-02-22T17:25:42.067Z,101952.78
2023-02-22T17:28:08.867Z,101946.28
2023-02-22T17:30:36.102Z,101953.38
2023-02-22T17:33:04.698Z,101940.78
2023-02-22T17:35:36.472Z,101956.06
2023-02-22T17:38:06.815Z,101959.88
2023-02-22T17:40:34.771Z,101947.56
2023-02-22T17:43:02.011Z,101953.50
2023-02-22T17:45:28.911Z,101946.78
2023-02-22T17:47:55.950Z,101958.94
2023-02-22T17:50:22.823Z,101951.53
2023-02-22T17:52:52.758Z,101946.53
2023-02-22T17:55:20.489Z,101950.13
2023-02-22T17:57:47.648Z,101958.66
2023-02-22T18:00:23.275Z,101958.59
2023-02-22T18:02:51.126Z,101961.34
2023-02-22T18:05:18.334Z,101949.78
2023-02-22T18:07:45.459Z,101932.00
2023-02-22T18:10:12.526Z,101947.97
2023-02-22T18:12:39.776Z,101940.59
2023-02-22T18:15:08.394Z,101936.47
2023-02-22T18:17:36.276Z,101951.97
2023-02-22T18:20:11.675Z,101942.94
2023-02-22T18:22:42.158Z,101940.63
2023-02-22T18:25:14.377Z,101953.38
2023-02-22T18:27:44.568Z,101950.16
2023-02-22T18:30:15.022Z,101948.53
2023-02-22T18:32:41.820Z,101944.56
2023-02-22T18:35:08.617Z,101953.03
2023-02-22T18:37:35.575Z,101953.31
2023-02-22T18:40:02.381Z,101952.59
2023-02-22T18:42:29.239Z,101951.16
2023-02-22T18:45:00.787Z,101936.66
2023-02-22T18:47:27.623Z,101944.56
2023-02-22T18:49:54.832Z,101947.19
2023-02-22T18:52:21.639Z,101938.03
2023-02-22T18:54:49.052Z,101945.75
2023-02-22T18:57:16.042Z,101927.31
2023-02-22T18:59:43.173Z,101932.44
2023-02-22T19:02:14.075Z,101935.03
2023-02-22T19:04:41.106Z,101929.84
2023-02-22T19:07:07.913Z,101926.59
2023-02-22T19:09:34.694Z,101938.50
2023-02-22T19:12:01.459Z,101909.22
2023-02-22T19:14:28.298Z,101930.38
2023-02-22T19:16:57.094Z,101937.31
2023-02-22T19:19:26.485Z,101928.75
2023-02-22T19:21:56.373Z,101930.72
2023-02-22T19:24:23.438Z,101927.19
2023-02-22T19:26:57.562Z,101930.63
2023-02-22T19:29:24.392Z,101923.16
2023-02-22T19:31:51.786Z,101935.06
2023-02-22T19:34:21.821Z,101939.88
2023-02-22T19:36:48.763Z,101935.69
2023-02-22T19:39:16.660Z,101917.09
2023-02-22T19:41:43.512Z,101924.88
2023-02-22T19:44:10.442Z,101930.72
2023-02-22T19:46:37.937Z,101918.94
2023-02-22T19:49:05.193Z,101932.63
2023-02-22T19:51:32.312Z,101917.66
2023-02-22T19:54:04.695Z,101933.81
2023-02-22T19:56:31.647Z,101909.38
2023-02-22T19:59:01.318Z,101929.03
2023-02-22T20:01:30.079Z,101914.16
2023-02-22T20:04:00.031Z,101897.50
2023-02-22T20:06:34.853Z,101934.72
2023-02-22T20:09:01.878Z,101925.41
2023-02-22T20:11:28.861Z,101918.69
2023-02-22T20:13:55.679Z,101911.13
2023-02-22T20:16:22.844Z,101922.19
2023-02-22T20:18:49.877Z,101911.31
2023-02-22T20:21:27.228Z,101915.59
2023-02-22T20:23:57.270Z,101919.53
2023-02-22T20:26:24.243Z,101924.69
2023-02-22T20:28:51.397Z,101918.09
2023-02-22T20:31:19.003Z,101918.03
2023-02-22T20:33:47.294Z,101914.47
2023-02-22T20:36:16.109Z,101916.75
2023-02-22T20:38:42.924Z,101910.16
2023-02-22T20:41:20.548Z,101928.50
2023-02-22T20:43:51.324Z,101924.13
2023-02-22T20:46:18.204Z,101900.34
2023-02-22T20:48:45.112Z,101923.22
2023-02-22T20:51:13.597Z,101911.09
2023-02-22T20:53:42.176Z,101918.81
2023-02-22T20:56:13.777Z,101906.97
2023-02-22T20:58:40.953Z,101909.56
2023-02-22T21:01:08.663Z,101916.56
2023-02-22T21:03:35.835Z,101908.72
2023-02-22T21:06:05.183Z,101910.28
2023-02-22T21:08:32.465Z,101902.63
2023-02-22T21:10:59.690Z,101917.84
2023-02-22T21:13:26.689Z,101903.41
2023-02-22T21:15:53.589Z,101918.88
2023-02-22T21:18:20.739Z,101916.16
2023-02-22T21:20:48.454Z,101919.66
2023-02-22T21:23:15.721Z,101919.59
2023-02-22T21:25:54.882Z,101919.59
2023-02-22T21:28:22.286Z,101921.47
2023-02-22T21:30:49.246Z,101920.91
2023-02-22T21:33:16.563Z,101920.75
2023-02-22T21:35:43.681Z,101914.81
2023-02-22T21:38:14.514Z,101919.06
2023-02-22T21:40:42.052Z,101910.03
2023-02-22T21:43:10.777Z,101923.63
2023-02-22T21:45:37.924Z,101926.06
2023-02-22T21:48:05.262Z,101922.81
2023-02-22T21:50:32.190Z,101917.03
2023-02-22T21:52:59.310Z,101911.06
2023-02-22T21:55:26.192Z,101916.47
2023-02-22T21:57:53.080Z,101915.63
2023-02-22T22:00:29.237Z,101903.22
2023-02-22T22:03:08.376Z,101910.06
2023-02-22T22:05:38.584Z,101925.34
2023-02-22T22:08:07.585Z,101914.41
2023-02-22T22:10:34.747Z,101907.03
2023-02-22T22:13:01.680Z,101919.75
2023-02-22T22:15:30.382Z,101924.22
2023-02-22T22:18:02.798Z,101928.03
2023-02-22T22:20:29.608Z,101914.63
2023-02-22T22:22:56.372Z,101920.75
2023-02-22T22:25:24.454Z,101916.78
2023-02-22T22:27:51.389Z,101919.69
2023-02-22T22:30:18.323Z,101932.66
2023-02-22T22:32:45.528Z,101930.47
2023-02-22T22:35:14.768Z,101918.78
2023-02-22T22:37:51.228Z,101925.63
2023-02-22T22:40:18.344Z,101926.75
2023-02-22T22:42:45.737Z,101925.84
2023-02-22T22:45:13.391Z,101930.47
2023-02-22T22:47:46.030Z,101916.91
2023-02-22T22:50:18.945Z,101920.25
2023-02-22T22:52:49.088Z,101924.53
2023-02-22T22:55:15.958Z,101917.56
2023-02-22T22:57:42.747Z,101919.06
2023-02-22T23:00:31.554Z,101915.41
2023-02-22T23:02:58.779Z,101905.25
2023-02-22T23:05:26.110Z,101908.25
2023-02-22T23:07:53.075Z,101899.75
2023-02-22T23:10:20.040Z,101898.03
2023-02-22T23:12:46.799Z,101914.03
2023-02-22T23:15:13.931Z,101910.66
2023-02-22T23:17:43.492Z,101915.09
2023-02-22T23:20:13.578Z,101917.63
2023-02-22T23:22:47.046Z,101907.66
2023-02-22T23:25:15.902Z,101913.66
2023-02-22T23:27:42.895Z,101901.00
2023-02-22T23:30:15.048Z,101891.72
2023-02-22T23:32:42.653Z,101896.59
2023-02-22T23:35:11.492Z,101917.75
2023-02-22T23:37:39.977Z,101909.06
2023-02-22T23:40:17.121Z,101890.41
2023-02-22T23:42:49.069Z,101896.25
2023-02-22T23:45:22.829Z,101904.03
2023-02-22T23:47:54.934Z,101907.50
2023-02-22T23:50:25.734Z,101908.78
2023-02-22T23:52:59.486Z,101894.06
2023-02-22T23:55:27.411Z,101892.75
2023-02-22T23:57:59.587Z,101900.91
